sensor_id;sensor_type;location;lat;lon;timestamp;P1;durP1;ratioP1;P2;durP2;ratioP2
2396;SDS011;1209;48.410;9.054;2022-12-18T00:01:11;14.40;;;9.45;;
2396;SDS011;1209;48.410;9.054;2022-12-18T00:03:46;10.63;;;8.23;;
2396;SDS011;1209;48.410;9.054;2022-12-18T00:06:11;19.63;;;9.07;;
2396;SDS011;1209;48.410;9.054;2022-12-18T00:08:38;15.55;;;9.43;;
2396;SDS011;1209;48.410;9.054;2022-12-18T00:11:04;20.27;;;10.17;;
2396;SDS011;1209;48.410;9.054;2022-12-18T00:13:31;22.13;;;10.65;;
2396;SDS011;1209;48.410;9.054;2022-12-18T00:16:00;19.30;;;10.30;;
2396;SDS011;1209;48.410;9.054;2022-12-18T00:18:37;13.45;;;8.35;;
2396;SDS011;1209;48.410;9.054;2022-12-18T00:21:03;12.07;;;8.60;;
2396;SDS011;1209;48.410;9.054;2022-12-18T00:23:31;20.15;;;11.35;;
2396;SDS011;1209;48.410;9.054;2022-12-18T00:26:01;12.57;;;8.27;;
2396;SDS011;1209;48.410;9.054;2022-12-18T00:28:28;17.88;;;9.73;;
2396;SDS011;1209;48.410;9.054;2022-12-18T00:31:03;17.30;;;11.50;;
2396;SDS011;1209;48.410;9.054;2022-12-18T00:33:30;20.33;;;10.18;;
2396;SDS011;1209;48.410;9.054;2022-12-18T00:36:00;26.90;;;10.80;;
2396;SDS011;1209;48.410;9.054;2022-12-18T00:38:26;19.40;;;10.30;;
2396;SDS011;1209;48.410;9.054;2022-12-18T00:40:51;12.20;;;6.93;;
2396;SDS011;1209;48.410;9.054;2022-12-18T00:43:17;24.20;;;12.17;;
2396;SDS011;1209;48.410;9.054;2022-12-18T00:45:42;22.40;;;11.07;;
2396;SDS011;1209;48.410;9.054;2022-12-18T00:48:07;16.10;;;11.10;;
2396;SDS011;1209;48.410;9.054;2022-12-18T00:50:33;16.13;;;11.23;;
2396;SDS011;1209;48.410;9.054;2022-12-18T00:52:58;17.00;;;9.80;;
2396;SDS011;1209;48.410;9.054;2022-12-18T00:55:23;18.03;;;9.40;;
2396;SDS011;1209;48.410;9.054;2022-12-18T00:57:50;25.20;;;11.77;;
2396;SDS011;1209;48.410;9.054;2022-12-18T01:00:17;17.63;;;11.73;;
2396;SDS011;1209;48.410;9.054;2022-12-18T01:02:42;12.83;;;10.80;;
2396;SDS011;1209;48.410;9.054;2022-12-18T01:05:09;26.27;;;11.93;;
2396;SDS011;1209;48.410;9.054;2022-12-18T01:07:35;18.48;;;10.88;;
2396;SDS011;1209;48.410;9.054;2022-12-18T01:10:01;19.47;;;11.87;;
2396;SDS011;1209;48.410;9.054;2022-12-18T01:12:26;23.43;;;12.87;;
2396;SDS011;1209;48.410;9.054;2022-12-18T01:14:51;19.40;;;10.07;;
2396;SDS011;1209;48.410;9.054;2022-12-18T01:17:17;20.70;;;10.63;;
2396;SDS011;1209;48.410;9.054;2022-12-18T01:19:42;15.57;;;10.50;;
2396;SDS011;1209;48.410;9.054;2022-12-18T01:22:07;17.97;;;9.03;;
2396;SDS011;1209;48.410;9.054;2022-12-18T01:24:33;17.80;;;10.13;;
2396;SDS011;1209;48.410;9.054;2022-12-18T01:26:58;23.80;;;10.20;;
2396;SDS011;1209;48.410;9.054;2022-12-18T01:29:23;22.13;;;11.03;;
2396;SDS011;1209;48.410;9.054;2022-12-18T01:31:48;22.67;;;9.27;;
2396;SDS011;1209;48.410;9.054;2022-12-18T01:34:14;10.47;;;6.90;;
2396;SDS011;1209;48.410;9.054;2022-12-18T01:36:39;19.13;;;8.90;;
2396;SDS011;1209;48.410;9.054;2022-12-18T01:39:06;13.30;;;9.67;;
2396;SDS011;1209;48.410;9.054;2022-12-18T01:41:34;17.23;;;9.50;;
2396;SDS011;1209;48.410;9.054;2022-12-18T01:47:26;21.75;;;11.98;;
2396;SDS011;1209;48.410;9.054;2022-12-18T01:50:04;10.90;;;6.85;;
2396;SDS011;1209;48.410;9.054;2022-12-18T01:52:43;16.05;;;9.85;;
2396;SDS011;1209;48.410;9.054;2022-12-18T01:55:12;11.65;;;10.32;;
2396;SDS011;1209;48.410;9.054;2022-12-18T01:57:40;14.27;;;11.38;;
2396;SDS011;1209;48.410;9.054;2022-12-18T02:00:17;16.80;;;8.60;;
2396;SDS011;1209;48.410;9.054;2022-12-18T02:02:44;17.40;;;9.38;;
2396;SDS011;1209;48.410;9.054;2022-12-18T02:05:11;15.30;;;10.35;;
2396;SDS011;1209;48.410;9.054;2022-12-18T02:12:56;15.70;;;9.05;;
2396;SDS011;1209;48.410;9.054;2022-12-18T02:16:08;16.98;;;10.35;;
2396;SDS011;1209;48.410;9.054;2022-12-18T02:18:39;14.35;;;7.97;;
2396;SDS011;1209;48.410;9.054;2022-12-18T02:21:11;11.00;;;8.45;;
2396;SDS011;1209;48.410;9.054;2022-12-18T02:23:48;19.73;;;9.65;;
2396;SDS011;1209;48.410;9.054;2022-12-18T02:26:30;19.75;;;11.05;;
2396;SDS011;1209;48.410;9.054;2022-12-18T02:29:05;23.95;;;11.70;;
2396;SDS011;1209;48.410;9.054;2022-12-18T02:31:36;9.20;;;8.23;;
2396;SDS011;1209;48.410;9.054;2022-12-18T02:34:06;24.10;;;9.10;;
2396;SDS011;1209;48.410;9.054;2022-12-18T02:36:34;16.05;;;8.52;;
2396;SDS011;1209;48.410;9.054;2022-12-18T02:39:03;12.40;;;8.60;;
2396;SDS011;1209;48.410;9.054;2022-12-18T02:41:31;9.50;;;7.07;;
2396;SDS011;1209;48.410;9.054;2022-12-18T02:43:57;14.10;;;7.77;;
2396;SDS011;1209;48.410;9.054;2022-12-18T02:46:28;14.13;;;7.13;;
2396;SDS011;1209;48.410;9.054;2022-12-18T02:51:53;22.83;;;10.65;;
2396;SDS011;1209;48.410;9.054;2022-12-18T02:54:23;16.63;;;8.85;;
2396;SDS011;1209;48.410;9.054;2022-12-18T03:00:14;21.13;;;9.40;;
2396;SDS011;1209;48.410;9.054;2022-12-18T03:05:17;16.45;;;9.25;;
2396;SDS011;1209;48.410;9.054;2022-12-18T03:07:49;15.57;;;8.13;;
2396;SDS011;1209;48.410;9.054;2022-12-18T03:10:19;16.92;;;10.80;;
2396;SDS011;1209;48.410;9.054;2022-12-18T03:13:35;20.70;;;9.20;;
2396;SDS011;1209;48.410;9.054;2022-12-18T03:15:40;19.67;;;9.20;;
2396;SDS011;1209;48.410;9.054;2022-12-18T03:18:11;8.73;;;7.63;;
2396;SDS011;1209;48.410;9.054;2022-12-18T03:20:42;12.07;;;9.80;;
2396;SDS011;1209;48.410;9.054;2022-12-18T03:23:10;10.85;;;7.63;;
2396;SDS011;1209;48.410;9.054;2022-12-18T03:25:41;23.13;;;8.07;;
2396;SDS011;1209;48.410;9.054;2022-12-18T03:28:13;12.57;;;10.40;;
2396;SDS011;1209;48.410;9.054;2022-12-18T03:30:41;14.07;;;9.77;;
2396;SDS011;1209;48.410;9.054;2022-12-18T03:36:02;15.02;;;9.27;;
2396;SDS011;1209;48.410;9.054;2022-12-18T03:38:28;30.70;;;9.13;;
2396;SDS011;1209;48.410;9.054;2022-12-18T03:41:02;23.57;;;10.33;;
2396;SDS011;1209;48.410;9.054;2022-12-18T03:46:38;9.80;;;8.98;;
2396;SDS011;1209;48.410;9.054;2022-12-18T03:49:11;7.70;;;7.10;;
2396;SDS011;1209;48.410;9.054;2022-12-18T03:51:43;14.05;;;8.85;;
2396;SDS011;1209;48.410;9.054;2022-12-18T03:54:16;14.23;;;7.40;;
2396;SDS011;1209;48.410;9.054;2022-12-18T03:56:44;23.05;;;10.73;;
2396;SDS011;1209;48.410;9.054;2022-12-18T03:59:14;19.13;;;10.13;;
2396;SDS011;1209;48.410;9.054;2022-12-18T04:01:42;17.50;;;9.35;;
2396;SDS011;1209;48.410;9.054;2022-12-18T04:04:12;12.00;;;8.30;;
2396;SDS011;1209;48.410;9.054;2022-12-18T04:06:40;19.75;;;10.32;;
2396;SDS011;1209;48.410;9.054;2022-12-18T04:09:07;14.13;;;10.30;;
2396;SDS011;1209;48.410;9.054;2022-12-18T04:11:33;18.77;;;7.70;;
2396;SDS011;1209;48.410;9.054;2022-12-18T04:13:58;19.90;;;8.70;;
2396;SDS011;1209;48.410;9.054;2022-12-18T04:16:24;9.57;;;8.27;;
2396;SDS011;1209;48.410;9.054;2022-12-18T04:18:50;19.55;;;8.73;;
2396;SDS011;1209;48.410;9.054;2022-12-18T04:21:16;19.40;;;8.37;;
2396;SDS011;1209;48.410;9.054;2022-12-18T04:23:41;15.70;;;7.63;;
2396;SDS011;1209;48.410;9.054;2022-12-18T04:26:06;20.73;;;9.93;;
2396;SDS011;1209;48.410;9.054;2022-12-18T04:28:31;17.40;;;9.23;;
2396;SDS011;1209;48.410;9.054;2022-12-18T04:30:57;13.40;;;8.37;;
2396;SDS011;1209;48.410;9.054;2022-12-18T04:33:22;18.53;;;7.90;;
2396;SDS011;1209;48.410;9.054;2022-12-18T04:35:47;20.17;;;10.30;;
2396;SDS011;1209;48.410;9.054;2022-12-18T04:38:13;11.20;;;8.17;;
2396;SDS011;1209;48.410;9.054;2022-12-18T04:40:38;15.20;;;9.57;;
2396;SDS011;1209;48.410;9.054;2022-12-18T04:43:04;15.27;;;7.03;;
2396;SDS011;1209;48.410;9.054;2022-12-18T04:45:30;15.03;;;9.30;;
2396;SDS011;1209;48.410;9.054;2022-12-18T04:48:00;19.55;;;10.07;;
2396;SDS011;1209;48.410;9.054;2022-12-18T04:50:26;16.10;;;7.40;;
2396;SDS011;1209;48.410;9.054;2022-12-18T04:52:52;14.17;;;9.47;;
2396;SDS011;1209;48.410;9.054;2022-12-18T04:55:17;17.83;;;9.17;;
2396;SDS011;1209;48.410;9.054;2022-12-18T04:57:43;16.00;;;8.77;;
2396;SDS011;1209;48.410;9.054;2022-12-18T05:00:09;9.83;;;7.80;;
2396;SDS011;1209;48.410;9.054;2022-12-18T05:02:35;20.10;;;9.25;;
2396;SDS011;1209;48.410;9.054;2022-12-18T05:05:00;14.40;;;8.40;;
2396;SDS011;1209;48.410;9.054;2022-12-18T05:07:25;23.83;;;8.90;;
2396;SDS011;1209;48.410;9.054;2022-12-18T05:09:51;16.67;;;9.20;;
2396;SDS011;1209;48.410;9.054;2022-12-18T05:12:16;10.10;;;6.23;;
2396;SDS011;1209;48.410;9.054;2022-12-18T05:14:41;8.00;;;6.23;;
2396;SDS011;1209;48.410;9.054;2022-12-18T05:17:07;16.63;;;7.03;;
2396;SDS011;1209;48.410;9.054;2022-12-18T05:19:32;27.00;;;10.20;;
2396;SDS011;1209;48.410;9.054;2022-12-18T05:21:57;7.73;;;6.90;;
2396;SDS011;1209;48.410;9.054;2022-12-18T05:24:23;11.77;;;7.30;;
2396;SDS011;1209;48.410;9.054;2022-12-18T05:26:48;13.43;;;8.77;;
2396;SDS011;1209;48.410;9.054;2022-12-18T05:29:13;8.50;;;7.37;;
2396;SDS011;1209;48.410;9.054;2022-12-18T05:31:39;8.53;;;7.40;;
2396;SDS011;1209;48.410;9.054;2022-12-18T05:34:04;17.43;;;7.40;;
2396;SDS011;1209;48.410;9.054;2022-12-18T05:36:30;14.07;;;7.13;;
2396;SDS011;1209;48.410;9.054;2022-12-18T05:38:55;17.00;;;8.40;;
2396;SDS011;1209;48.410;9.054;2022-12-18T05:41:21;6.80;;;6.20;;
2396;SDS011;1209;48.410;9.054;2022-12-18T05:43:46;18.00;;;10.37;;
2396;SDS011;1209;48.410;9.054;2022-12-18T05:46:12;15.63;;;9.37;;
2396;SDS011;1209;48.410;9.054;2022-12-18T05:48:39;26.20;;;12.60;;
2396;SDS011;1209;48.410;9.054;2022-12-18T05:51:09;16.73;;;10.70;;
2396;SDS011;1209;48.410;9.054;2022-12-18T05:53:36;20.50;;;10.55;;
2396;SDS011;1209;48.410;9.054;2022-12-18T05:56:03;19.80;;;9.23;;
2396;SDS011;1209;48.410;9.054;2022-12-18T05:58:30;14.32;;;7.35;;
2396;SDS011;1209;48.410;9.054;2022-12-18T06:00:57;17.92;;;10.23;;
2396;SDS011;1209;48.410;9.054;2022-12-18T06:03:22;10.10;;;7.70;;
2396;SDS011;1209;48.410;9.054;2022-12-18T06:05:48;11.87;;;6.57;;
2396;SDS011;1209;48.410;9.054;2022-12-18T06:08:13;9.50;;;8.23;;
2396;SDS011;1209;48.410;9.054;2022-12-18T06:10:39;9.00;;;6.80;;
2396;SDS011;1209;48.410;9.054;2022-12-18T06:13:06;14.45;;;8.30;;
2396;SDS011;1209;48.410;9.054;2022-12-18T06:15:31;21.33;;;9.03;;
2396;SDS011;1209;48.410;9.054;2022-12-18T06:17:57;16.83;;;11.13;;
2396;SDS011;1209;48.410;9.054;2022-12-18T06:20:22;12.73;;;8.50;;
2396;SDS011;1209;48.410;9.054;2022-12-18T06:22:48;17.60;;;9.53;;
2396;SDS011;1209;48.410;9.054;2022-12-18T06:25:13;8.00;;;5.80;;
2396;SDS011;1209;48.410;9.054;2022-12-18T06:27:38;9.70;;;7.60;;
2396;SDS011;1209;48.410;9.054;2022-12-18T06:30:04;9.80;;;8.37;;
2396;SDS011;1209;48.410;9.054;2022-12-18T06:32:30;9.77;;;6.55;;
2396;SDS011;1209;48.410;9.054;2022-12-18T06:34:55;16.43;;;7.80;;
2396;SDS011;1209;48.410;9.054;2022-12-18T06:37:21;8.37;;;6.70;;
2396;SDS011;1209;48.410;9.054;2022-12-18T06:39:49;13.38;;;8.02;;
2396;SDS011;1209;48.410;9.054;2022-12-18T06:42:15;10.17;;;8.17;;
2396;SDS011;1209;48.410;9.054;2022-12-18T06:44:40;21.03;;;8.47;;
2396;SDS011;1209;48.410;9.054;2022-12-18T06:47:05;10.57;;;8.40;;
2396;SDS011;1209;48.410;9.054;2022-12-18T06:49:30;16.60;;;7.00;;
2396;SDS011;1209;48.410;9.054;2022-12-18T06:51:56;11.27;;;6.87;;
2396;SDS011;1209;48.410;9.054;2022-12-18T06:54:21;14.53;;;9.33;;
2396;SDS011;1209;48.410;9.054;2022-12-18T06:56:46;8.50;;;7.43;;
2396;SDS011;1209;48.410;9.054;2022-12-18T06:59:12;19.63;;;7.43;;
2396;SDS011;1209;48.410;9.054;2022-12-18T07:01:38;9.00;;;8.10;;
2396;SDS011;1209;48.410;9.054;2022-12-18T07:04:03;14.40;;;8.70;;
2396;SDS011;1209;48.410;9.054;2022-12-18T07:06:28;18.60;;;8.30;;
2396;SDS011;1209;48.410;9.054;2022-12-18T07:08:54;9.53;;;6.53;;
2396;SDS011;1209;48.410;9.054;2022-12-18T07:11:19;11.83;;;8.07;;
2396;SDS011;1209;48.410;9.054;2022-12-18T07:13:45;12.90;;;8.53;;
2396;SDS011;1209;48.410;9.054;2022-12-18T07:16:11;11.10;;;6.43;;
2396;SDS011;1209;48.410;9.054;2022-12-18T07:18:39;14.63;;;7.65;;
2396;SDS011;1209;48.410;9.054;2022-12-18T07:21:08;15.83;;;6.63;;
2396;SDS011;1209;48.410;9.054;2022-12-18T07:23:35;18.13;;;6.85;;
2396;SDS011;1209;48.410;9.054;2022-12-18T07:26:05;14.10;;;9.37;;
2396;SDS011;1209;48.410;9.054;2022-12-18T07:28:34;18.02;;;8.05;;
2396;SDS011;1209;48.410;9.054;2022-12-18T07:31:04;15.30;;;9.40;;
2396;SDS011;1209;48.410;9.054;2022-12-18T07:33:34;10.73;;;7.65;;
2396;SDS011;1209;48.410;9.054;2022-12-18T07:36:00;10.77;;;8.10;;
2396;SDS011;1209;48.410;9.054;2022-12-18T07:38:26;12.65;;;7.88;;
2396;SDS011;1209;48.410;9.054;2022-12-18T07:40:51;11.17;;;6.10;;
2396;SDS011;1209;48.410;9.054;2022-12-18T07:43:17;11.53;;;6.73;;
2396;SDS011;1209;48.410;9.054;2022-12-18T07:45:42;9.03;;;6.87;;
2396;SDS011;1209;48.410;9.054;2022-12-18T07:48:08;19.13;;;7.60;;
2396;SDS011;1209;48.410;9.054;2022-12-18T07:50:33;9.40;;;8.47;;
2396;SDS011;1209;48.410;9.054;2022-12-18T07:52:59;22.37;;;9.50;;
2396;SDS011;1209;48.410;9.054;2022-12-18T07:55:29;21.00;;;9.13;;
2396;SDS011;1209;48.410;9.054;2022-12-18T07:57:55;18.38;;;10.48;;
2396;SDS011;1209;48.410;9.054;2022-12-18T08:00:21;22.03;;;10.97;;
2396;SDS011;1209;48.410;9.054;2022-12-18T08:02:46;22.97;;;10.67;;
2396;SDS011;1209;48.410;9.054;2022-12-18T08:05:12;17.93;;;9.70;;
2396;SDS011;1209;48.410;9.054;2022-12-18T08:07:38;19.50;;;10.07;;
2396;SDS011;1209;48.410;9.054;2022-12-18T08:10:04;25.40;;;12.70;;
2396;SDS011;1209;48.410;9.054;2022-12-18T08:12:29;11.00;;;9.90;;
2396;SDS011;1209;48.410;9.054;2022-12-18T08:14:54;13.83;;;9.17;;
2396;SDS011;1209;48.410;9.054;2022-12-18T08:17:20;15.47;;;12.00;;
2396;SDS011;1209;48.410;9.054;2022-12-18T08:19:45;18.70;;;10.63;;
2396;SDS011;1209;48.410;9.054;2022-12-18T08:22:10;16.00;;;9.20;;
2396;SDS011;1209;48.410;9.054;2022-12-18T08:24:36;24.33;;;10.70;;
2396;SDS011;1209;48.410;9.054;2022-12-18T08:27:01;12.23;;;10.00;;
2396;SDS011;1209;48.410;9.054;2022-12-18T08:29:26;24.47;;;9.03;;
2396;SDS011;1209;48.410;9.054;2022-12-18T08:31:51;11.63;;;8.00;;
2396;SDS011;1209;48.410;9.054;2022-12-18T08:34:17;16.23;;;8.43;;
2396;SDS011;1209;48.410;9.054;2022-12-18T08:36:42;15.10;;;8.23;;
2396;SDS011;1209;48.410;9.054;2022-12-18T08:39:07;16.20;;;8.07;;
2396;SDS011;1209;48.410;9.054;2022-12-18T08:41:33;7.73;;;6.77;;
2396;SDS011;1209;48.410;9.054;2022-12-18T08:43:58;19.27;;;10.20;;
2396;SDS011;1209;48.410;9.054;2022-12-18T08:46:42;14.82;;;8.65;;
2396;SDS011;1209;48.410;9.054;2022-12-18T08:49:09;18.95;;;9.73;;
2396;SDS011;1209;48.410;9.054;2022-12-18T08:51:35;22.90;;;11.65;;
2396;SDS011;1209;48.410;9.054;2022-12-18T08:54:02;21.23;;;13.47;;
2396;SDS011;1209;48.410;9.054;2022-12-18T08:56:28;16.83;;;10.35;;
2396;SDS011;1209;48.410;9.054;2022-12-18T08:58:54;23.50;;;11.93;;
2396;SDS011;1209;48.410;9.054;2022-12-18T09:01:20;20.10;;;10.83;;
2396;SDS011;1209;48.410;9.054;2022-12-18T09:03:47;21.17;;;10.68;;
2396;SDS011;1209;48.410;9.054;2022-12-18T09:06:13;24.13;;;10.68;;
2396;SDS011;1209;48.410;9.054;2022-12-18T09:08:40;27.95;;;12.75;;
2396;SDS011;1209;48.410;9.054;2022-12-18T09:11:10;27.93;;;9.37;;
2396;SDS011;1209;48.410;9.054;2022-12-18T09:13:38;24.75;;;12.82;;
2396;SDS011;1209;48.410;9.054;2022-12-18T09:16:03;20.33;;;9.93;;
2396;SDS011;1209;48.410;9.054;2022-12-18T09:18:29;24.17;;;13.43;;
2396;SDS011;1209;48.410;9.054;2022-12-18T09:20:54;29.50;;;11.33;;
2396;SDS011;1209;48.410;9.054;2022-12-18T09:23:20;25.97;;;10.03;;
2396;SDS011;1209;48.410;9.054;2022-12-18T09:25:46;24.33;;;11.35;;
2396;SDS011;1209;48.410;9.054;2022-12-18T09:28:12;25.53;;;10.53;;
2396;SDS011;1209;48.410;9.054;2022-12-18T09:30:41;26.52;;;11.90;;
2396;SDS011;1209;48.410;9.054;2022-12-18T09:33:08;26.58;;;11.70;;
2396;SDS011;1209;48.410;9.054;2022-12-18T09:35:37;23.47;;;12.97;;
2396;SDS011;1209;48.410;9.054;2022-12-18T09:38:03;23.30;;;10.20;;
2396;SDS011;1209;48.410;9.054;2022-12-18T09:40:32;17.30;;;9.80;;
2396;SDS011;1209;48.410;9.054;2022-12-18T09:43:03;18.90;;;9.90;;
2396;SDS011;1209;48.410;9.054;2022-12-18T09:45:40;23.83;;;12.93;;
2396;SDS011;1209;48.410;9.054;2022-12-18T09:48:18;43.15;;;15.23;;
2396;SDS011;1209;48.410;9.054;2022-12-18T09:50:47;39.60;;;15.07;;
2396;SDS011;1209;48.410;9.054;2022-12-18T09:53:17;25.65;;;14.02;;
2396;SDS011;1209;48.410;9.054;2022-12-18T09:55:47;33.55;;;12.23;;
2396;SDS011;1209;48.410;9.054;2022-12-18T09:58:24;23.23;;;12.93;;
2396;SDS011;1209;48.410;9.054;2022-12-18T10:00:56;20.10;;;11.30;;
2396;SDS011;1209;48.410;9.054;2022-12-18T10:03:22;22.13;;;12.10;;
2396;SDS011;1209;48.410;9.054;2022-12-18T10:11:36;21.63;;;12.55;;
2396;SDS011;1209;48.410;9.054;2022-12-18T10:27:23;34.95;;;16.77;;
2396;SDS011;1209;48.410;9.054;2022-12-18T10:29:51;32.97;;;16.80;;
2396;SDS011;1209;48.410;9.054;2022-12-18T10:32:17;32.70;;;15.10;;
2396;SDS011;1209;48.410;9.054;2022-12-18T10:34:45;35.28;;;17.80;;
2396;SDS011;1209;48.410;9.054;2022-12-18T10:37:14;30.30;;;13.00;;
2396;SDS011;1209;48.410;9.054;2022-12-18T10:39:42;38.53;;;16.73;;
2396;SDS011;1209;48.410;9.054;2022-12-18T10:42:18;33.50;;;15.60;;
2396;SDS011;1209;48.410;9.054;2022-12-18T10:44:44;38.95;;;16.17;;
2396;SDS011;1209;48.410;9.054;2022-12-18T10:47:18;34.60;;;13.43;;
2396;SDS011;1209;48.410;9.054;2022-12-18T10:49:51;27.20;;;13.95;;
2396;SDS011;1209;48.410;9.054;2022-12-18T10:52:23;28.98;;;13.38;;
2396;SDS011;1209;48.410;9.054;2022-12-18T10:54:51;40.65;;;15.13;;
2396;SDS011;1209;48.410;9.054;2022-12-18T10:59:55;26.05;;;14.35;;
2396;SDS011;1209;48.410;9.054;2022-12-18T11:02:33;33.97;;;13.40;;
2396;SDS011;1209;48.410;9.054;2022-12-18T11:05:01;30.27;;;13.15;;
2396;SDS011;1209;48.410;9.054;2022-12-18T11:07:46;29.73;;;14.15;;
2396;SDS011;1209;48.410;9.054;2022-12-18T11:10:17;32.53;;;14.35;;
2396;SDS011;1209;48.410;9.054;2022-12-18T11:12:44;30.75;;;13.07;;
2396;SDS011;1209;48.410;9.054;2022-12-18T11:15:20;34.60;;;13.07;;
2396;SDS011;1209;48.410;9.054;2022-12-18T11:17:49;29.33;;;13.25;;
2396;SDS011;1209;48.410;9.054;2022-12-18T11:23:04;34.70;;;13.52;;
2396;SDS011;1209;48.410;9.054;2022-12-18T11:25:38;30.17;;;14.82;;
2396;SDS011;1209;48.410;9.054;2022-12-18T11:28:26;37.77;;;13.70;;
2396;SDS011;1209;48.410;9.054;2022-12-18T11:31:36;30.25;;;12.32;;
2396;SDS011;1209;48.410;9.054;2022-12-18T11:33:46;27.23;;;10.63;;
2396;SDS011;1209;48.410;9.054;2022-12-18T11:36:19;31.90;;;10.75;;
2396;SDS011;1209;48.410;9.054;2022-12-18T11:38:45;19.40;;;9.60;;
2396;SDS011;1209;48.410;9.054;2022-12-18T11:41:19;24.17;;;11.52;;
2396;SDS011;1209;48.410;9.054;2022-12-18T11:44:15;26.77;;;13.23;;
2396;SDS011;1209;48.410;9.054;2022-12-18T11:46:49;31.10;;;13.05;;
2396;SDS011;1209;48.410;9.054;2022-12-18T11:49:21;27.63;;;11.38;;
2396;SDS011;1209;48.410;9.054;2022-12-18T11:54:34;32.58;;;14.27;;
2396;SDS011;1209;48.410;9.054;2022-12-18T11:57:14;32.70;;;13.20;;
2396;SDS011;1209;48.410;9.054;2022-12-18T12:08:08;29.60;;;14.57;;
2396;SDS011;1209;48.410;9.054;2022-12-18T12:10:46;35.10;;;15.40;;
2396;SDS011;1209;48.410;9.054;2022-12-18T12:13:34;46.22;;;14.68;;
2396;SDS011;1209;48.410;9.054;2022-12-18T12:16:27;34.05;;;15.68;;
2396;SDS011;1209;48.410;9.054;2022-12-18T12:19:13;36.90;;;14.40;;
2396;SDS011;1209;48.410;9.054;2022-12-18T12:21:43;31.80;;;13.25;;
2396;SDS011;1209;48.410;9.054;2022-12-18T12:27:32;40.08;;;16.00;;
2396;SDS011;1209;48.410;9.054;2022-12-18T12:30:21;31.48;;;14.57;;
2396;SDS011;1209;48.410;9.054;2022-12-18T12:35:47;31.40;;;14.63;;
2396;SDS011;1209;48.410;9.054;2022-12-18T12:38:16;37.78;;;18.02;;
2396;SDS011;1209;48.410;9.054;2022-12-18T12:41:09;37.67;;;17.05;;
2396;SDS011;1209;48.410;9.054;2022-12-18T12:43:57;45.95;;;18.65;;
2396;SDS011;1209;48.410;9.054;2022-12-18T12:46:25;34.58;;;15.90;;
2396;SDS011;1209;48.410;9.054;2022-12-18T12:49:05;38.20;;;14.33;;
2396;SDS011;1209;48.410;9.054;2022-12-18T12:51:40;27.73;;;13.75;;
2396;SDS011;1209;48.410;9.054;2022-12-18T12:54:11;26.63;;;15.05;;
2396;SDS011;1209;48.410;9.054;2022-12-18T12:56:45;31.20;;;14.20;;
2396;SDS011;1209;48.410;9.054;2022-12-18T13:07:45;28.98;;;14.82;;
2396;SDS011;1209;48.410;9.054;2022-12-18T13:10:25;30.88;;;14.90;;
2396;SDS011;1209;48.410;9.054;2022-12-18T13:12:57;41.10;;;16.15;;
2396;SDS011;1209;48.410;9.054;2022-12-18T13:15:28;38.38;;;16.23;;
2396;SDS011;1209;48.410;9.054;2022-12-18T13:20:47;27.70;;;12.48;;
2396;SDS011;1209;48.410;9.054;2022-12-18T13:23:27;26.88;;;13.70;;
2396;SDS011;1209;48.410;9.054;2022-12-18T13:34:14;45.85;;;18.02;;
2396;SDS011;1209;48.410;9.054;2022-12-18T13:36:42;204.40;;;54.53;;
2396;SDS011;1209;48.410;9.054;2022-12-18T13:39:11;94.93;;;31.43;;
2396;SDS011;1209;48.410;9.054;2022-12-18T13:41:54;41.30;;;18.60;;
2396;SDS011;1209;48.410;9.054;2022-12-18T13:44:58;22.92;;;13.65;;
2396;SDS011;1209;48.410;9.054;2022-12-18T13:47:36;31.90;;;17.27;;
2396;SDS011;1209;48.410;9.054;2022-12-18T13:50:09;40.28;;;17.50;;
2396;SDS011;1209;48.410;9.054;2022-12-18T13:52:55;31.30;;;15.27;;
2396;SDS011;1209;48.410;9.054;2022-12-18T13:55:20;34.50;;;16.37;;
2396;SDS011;1209;48.410;9.054;2022-12-18T13:57:47;33.42;;;16.42;;
2396;SDS011;1209;48.410;9.054;2022-12-18T14:02:44;38.72;;;15.60;;
2396;SDS011;1209;48.410;9.054;2022-12-18T14:05:27;41.65;;;17.02;;
2396;SDS011;1209;48.410;9.054;2022-12-18T14:07:54;31.83;;;15.23;;
2396;SDS011;1209;48.410;9.054;2022-12-18T14:10:23;32.65;;;16.25;;
2396;SDS011;1209;48.410;9.054;2022-12-18T14:12:49;45.40;;;15.97;;
2396;SDS011;1209;48.410;9.054;2022-12-18T14:17:53;41.42;;;19.67;;
2396;SDS011;1209;48.410;9.054;2022-12-18T14:20:22;62.13;;;22.23;;
2396;SDS011;1209;48.410;9.054;2022-12-18T14:22:49;38.97;;;19.40;;
2396;SDS011;1209;48.410;9.054;2022-12-18T14:27:52;38.05;;;13.57;;
2396;SDS011;1209;48.410;9.054;2022-12-18T14:30:39;33.50;;;13.55;;
2396;SDS011;1209;48.410;9.054;2022-12-18T14:33:10;36.88;;;15.48;;
2396;SDS011;1209;48.410;9.054;2022-12-18T14:36:00;28.25;;;9.57;;
2396;SDS011;1209;48.410;9.054;2022-12-18T14:38:31;34.08;;;12.48;;
2396;SDS011;1209;48.410;9.054;2022-12-18T14:41:09;38.33;;;13.68;;
2396;SDS011;1209;48.410;9.054;2022-12-18T14:43:38;25.35;;;10.90;;
2396;SDS011;1209;48.410;9.054;2022-12-18T14:46:05;30.95;;;10.98;;
2396;SDS011;1209;48.410;9.054;2022-12-18T14:48:51;30.48;;;10.55;;
2396;SDS011;1209;48.410;9.054;2022-12-18T14:51:18;34.40;;;13.17;;
2396;SDS011;1209;48.410;9.054;2022-12-18T14:53:46;36.80;;;17.27;;
2396;SDS011;1209;48.410;9.054;2022-12-18T14:56:17;47.08;;;17.98;;
2396;SDS011;1209;48.410;9.054;2022-12-18T14:58:49;39.78;;;19.10;;
2396;SDS011;1209;48.410;9.054;2022-12-18T15:01:29;38.88;;;18.65;;
2396;SDS011;1209;48.410;9.054;2022-12-18T15:04:02;46.42;;;19.52;;
2396;SDS011;1209;48.410;9.054;2022-12-18T15:09:00;45.10;;;21.40;;
2396;SDS011;1209;48.410;9.054;2022-12-18T15:11:45;44.00;;;22.98;;
2396;SDS011;1209;48.410;9.054;2022-12-18T15:14:29;52.40;;;21.40;;
2396;SDS011;1209;48.410;9.054;2022-12-18T15:16:58;38.45;;;18.58;;
2396;SDS011;1209;48.410;9.054;2022-12-18T15:19:35;45.67;;;19.35;;
2396;SDS011;1209;48.410;9.054;2022-12-18T15:22:13;52.65;;;24.13;;
2396;SDS011;1209;48.410;9.054;2022-12-18T15:24:50;58.42;;;22.77;;
2396;SDS011;1209;48.410;9.054;2022-12-18T15:27:26;66.37;;;29.50;;
2396;SDS011;1209;48.410;9.054;2022-12-18T15:32:38;73.80;;;27.65;;
2396;SDS011;1209;48.410;9.054;2022-12-18T15:37:36;57.67;;;25.50;;
2396;SDS011;1209;48.410;9.054;2022-12-18T15:40:02;64.38;;;22.50;;
2396;SDS011;1209;48.410;9.054;2022-12-18T15:42:28;47.10;;;20.90;;
2396;SDS011;1209;48.410;9.054;2022-12-18T15:45:13;57.85;;;25.02;;
2396;SDS011;1209;48.410;9.054;2022-12-18T15:47:39;46.38;;;22.42;;
2396;SDS011;1209;48.410;9.054;2022-12-18T15:50:05;52.33;;;22.97;;
2396;SDS011;1209;48.410;9.054;2022-12-18T15:52:36;58.50;;;22.60;;
2396;SDS011;1209;48.410;9.054;2022-12-18T15:55:12;42.70;;;20.70;;
2396;SDS011;1209;48.410;9.054;2022-12-18T15:57:57;68.70;;;25.88;;
2396;SDS011;1209;48.410;9.054;2022-12-18T16:00:22;60.20;;;24.80;;
2396;SDS011;1209;48.410;9.054;2022-12-18T16:02:48;37.57;;;19.60;;
2396;SDS011;1209;48.410;9.054;2022-12-18T16:05:14;56.93;;;23.50;;
2396;SDS011;1209;48.410;9.054;2022-12-18T16:07:41;50.40;;;23.65;;
2396;SDS011;1209;48.410;9.054;2022-12-18T16:10:07;52.43;;;23.77;;
2396;SDS011;1209;48.410;9.054;2022-12-18T16:12:34;61.37;;;23.97;;
2396;SDS011;1209;48.410;9.054;2022-12-18T16:15:00;42.58;;;22.52;;
2396;SDS011;1209;48.410;9.054;2022-12-18T16:17:25;43.37;;;21.70;;
2396;SDS011;1209;48.410;9.054;2022-12-18T16:19:53;48.90;;;22.00;;
2396;SDS011;1209;48.410;9.054;2022-12-18T16:22:20;39.50;;;21.38;;
2396;SDS011;1209;48.410;9.054;2022-12-18T16:24:47;45.20;;;22.42;;
2396;SDS011;1209;48.410;9.054;2022-12-18T16:27:14;49.70;;;23.85;;
2396;SDS011;1209;48.410;9.054;2022-12-18T16:29:39;48.83;;;22.73;;
2396;SDS011;1209;48.410;9.054;2022-12-18T16:32:04;64.33;;;26.77;;
2396;SDS011;1209;48.410;9.054;2022-12-18T16:34:30;53.30;;;23.63;;
2396;SDS011;1209;48.410;9.054;2022-12-18T16:36:59;63.30;;;24.75;;
2396;SDS011;1209;48.410;9.054;2022-12-18T16:39:26;51.65;;;24.55;;
2396;SDS011;1209;48.410;9.054;2022-12-18T16:41:52;53.27;;;22.63;;
2396;SDS011;1209;48.410;9.054;2022-12-18T16:44:18;58.93;;;24.53;;
2396;SDS011;1209;48.410;9.054;2022-12-18T16:46:43;57.93;;;22.60;;
2396;SDS011;1209;48.410;9.054;2022-12-18T16:49:13;61.53;;;26.70;;